Time;durP1;ratioP1;P1;durP2;ratioP2;P2;SDS_P1;SDS_P2;PMS_P1;PMS_P2;Temp;Humidity;BMP_temperature;BMP_pressure;BME280_temperature;BME280_humidity;BME280_pressure;Samples;Min_cycle;Max_cycle;Signal;HPM_P1;HPM_P2
2022/05/01 00:02:23;;;;;;;10.88;7.10;;;;;;;14.78;70.70;100517.19;4898501;29;20037;-81
2022/05/01 00:04:49;;;;;;;8.82;6.85;;;;;;;15.00;69.76;100524.22;4897204;29;20040;-82
2022/05/01 00:07:17;;;;;;;12.35;7.38;;;;;;;14.72;71.01;100509.97;4893461;29;20055;-87
2022/05/01 00:09:42;;;;;;;10.77;7.75;;;;;;;14.55;71.96;100518.41;4886724;29;20508;-86
2022/05/01 00:12:09;;;;;;;16.00;7.05;;;;;;;14.37;72.96;100511.63;4882586;29;20049;-81
2022/05/01 00:14:35;;;;;;;12.10;7.65;;;;;;;14.55;72.71;100511.19;4877778;29;20038;-85
2022/05/01 00:17:08;;;;;;;14.75;8.27;;;;;;;14.46;72.99;100512.34;4877145;29;20040;-89
2022/05/01 00:19:38;;;;;;;10.25;7.63;;;;;;;14.46;73.22;100507.00;4880507;29;20048;-87
2022/05/01 00:22:06;;;;;;;14.38;8.15;;;;;;;14.46;73.39;100509.66;4879231;29;20130;-81
2022/05/01 00:24:33;;;;;;;11.60;7.90;;;;;;;14.36;73.93;100511.81;4876967;29;20130;-78
2022/05/01 00:27:08;;;;;;;12.02;8.15;;;;;;;14.40;73.39;100523.75;4877506;29;20049;-87
2022/05/01 00:29:36;;;;;;;11.80;8.30;;;;;;;14.36;73.60;100517.13;4879394;29;20037;-84
2022/05/01 00:32:06;;;;;;;12.20;8.15;;;;;;;14.44;73.06;100517.03;4879716;29;20045;-81
2022/05/01 00:37:19;;;;;;;9.73;7.78;;;;;;;14.68;72.29;100506.00;4895448;29;20409;-87
2022/05/01 00:39:46;;;;;;;12.77;8.20;;;;;;;14.72;71.70;100509.97;4877334;29;20037;-84
2022/05/01 00:42:13;;;;;;;13.07;8.43;;;;;;;14.57;72.15;100503.84;4865092;29;20097;-87
2022/05/01 00:44:39;;;;;;;11.05;7.40;;;;;;;14.51;72.07;100509.13;4875127;29;20037;-81
2022/05/01 00:47:13;;;;;;;13.50;7.80;;;;;;;14.35;72.88;100515.50;4877205;29;20168;-81
2022/05/01 00:49:40;;;;;;;13.77;6.90;;;;;;;14.12;73.55;100509.44;4889286;29;20069;-80
2022/05/01 00:52:09;;;;;;;13.45;6.75;;;;;;;14.34;72.47;100500.50;4887678;29;20064;-88
2022/05/01 00:54:43;;;;;;;13.45;6.57;;;;;;;14.09;73.56;100504.44;4888737;29;20113;-84
2022/05/01 00:57:10;;;;;;;10.45;7.22;;;;;;;13.85;74.33;100497.59;4886946;29;20101;-84
2022/05/01 00:59:41;;;;;;;7.82;6.10;;;;;;;13.77;75.01;100495.84;4890070;29;20404;-86
2022/05/01 01:02:08;;;;;;;8.93;6.82;;;;;;;13.64;75.50;100500.13;4886858;29;20401;-84
2022/05/01 01:04:36;;;;;;;10.60;6.68;;;;;;;13.57;76.37;100500.03;4888629;29;20376;-88
2022/05/01 01:07:24;;;;;;;11.60;7.32;;;;;;;13.46;77.15;100497.81;4889523;29;20068;-84
2022/05/01 01:09:53;;;;;;;15.50;7.38;;;;;;;13.47;77.20;100496.81;4887914;29;20052;-85
2022/05/01 01:15:09;;;;;;;14.10;8.25;;;;;;;13.51;77.69;100495.44;4889489;29;20445;-84
2022/05/01 01:17:46;;;;;;;14.18;8.85;;;;;;;13.60;77.36;100499.66;4887521;29;20048;-84
2022/05/01 01:20:18;;;;;;;16.20;8.18;;;;;;;13.66;77.26;100493.63;4902902;29;20048;-84
2022/05/01 01:22:48;;;;;;;15.43;9.20;;;;;;;13.71;76.56;100495.75;4890407;29;20048;-88
2022/05/01 01:25:16;;;;;;;12.38;8.05;;;;;;;13.66;77.04;100498.09;4889605;29;20041;-85
2022/05/01 01:27:42;;;;;;;16.67;8.80;;;;;;;13.78;76.28;100497.50;4906858;29;20064;-89
2022/05/01 01:32:56;;;;;;;14.55;8.50;;;;;;;14.06;75.09;100494.16;4892540;29;20049;-85
2022/05/01 01:35:26;;;;;;;14.40;9.77;;;;;;;14.08;74.72;100494.81;4890704;29;20025;-84
2022/05/01 01:37:54;;;;;;;12.70;8.40;;;;;;;13.94;75.49;100491.97;4906066;29;20538;-83
2022/05/01 01:40:40;;;;;;;10.57;8.13;;;;;;;13.78;76.40;100500.16;4892192;29;20041;-86
2022/05/01 01:43:07;;;;;;;12.18;8.27;;;;;;;13.96;74.83;100495.28;4892540;29;20041;-83
2022/05/01 01:45:35;;;;;;;10.05;7.10;;;;;;;14.08;74.49;100502.81;4892482;29;20029;-85
2022/05/01 01:48:15;;;;;;;10.52;7.15;;;;;;;13.84;74.75;100491.44;4895626;29;20025;-84
2022/05/01 01:51:00;;;;;;;9.00;6.75;;;;;;;13.72;75.37;100500.88;4891530;29;20065;-84
2022/05/01 01:53:27;;;;;;;12.02;7.10;;;;;;;13.84;75.30;100499.41;4888507;29;20033;-85
2022/05/01 01:55:53;;;;;;;11.02;7.05;;;;;;;13.69;76.17;100498.56;4890835;29;20048;-83
2022/05/01 01:58:19;;;;;;;12.80;7.18;;;;;;;13.80;75.39;100499.97;4893524;29;20049;-82
2022/05/01 02:00:45;;;;;;;12.45;7.30;;;;;;;13.71;75.64;100501.91;4894110;29;20036;-84
2022/05/01 02:03:12;;;;;;;11.40;7.30;;;;;;;13.89;75.03;100494.34;4887316;29;20039;-82
2022/05/01 02:05:38;;;;;;;10.73;7.80;;;;;;;13.94;74.05;100491.16;4893489;29;20036;-83
2022/05/01 02:08:11;;;;;;;12.82;7.85;;;;;;;13.76;75.88;100496.84;4893640;29;20041;-86
2022/05/01 02:10:37;;;;;;;12.45;8.50;;;;;;;13.56;76.67;100506.38;4895177;29;20049;-88
2022/05/01 02:13:03;;;;;;;16.77;8.15;;;;;;;13.54;76.85;100494.25;4877183;29;20408;-81
2022/05/01 02:15:33;;;;;;;14.32;8.68;;;;;;;13.81;75.82;100496.28;4907134;29;20072;-86
2022/05/01 02:18:00;;;;;;;13.02;8.80;;;;;;;14.01;73.97;100493.91;4890886;29;20041;-85
2022/05/01 02:23:37;;;;;;;15.07;8.38;;;;;;;14.05;72.92;100492.53;4894482;29;20045;-90
2022/05/01 02:26:06;;;;;;;11.38;8.20;;;;;;;14.02;73.03;100498.22;4892537;29;20108;-87
2022/05/01 02:28:43;;;;;;;10.82;7.85;;;;;;;13.97;73.05;100494.28;4888502;29;20409;-86
2022/05/01 02:31:11;;;;;;;16.50;8.55;;;;;;;13.73;74.69;100489.22;4891866;29;20084;-85
2022/05/01 02:33:37;;;;;;;13.98;8.10;;;;;;;13.38;76.99;100487.25;4894708;29;20450;-84
2022/05/01 02:36:07;;;;;;;12.07;8.35;;;;;;;13.32;77.62;100485.31;4892827;29;20029;-84
2022/05/01 02:38:36;;;;;;;12.05;8.27;;;;;;;13.29;77.80;100488.34;4892722;29;20041;-85
2022/05/01 02:41:04;;;;;;;15.38;8.48;;;;;;;13.30;77.97;100488.16;4888363;29;20374;-82
2022/05/01 02:43:30;;;;;;;11.48;8.18;;;;;;;13.54;76.44;100484.44;4889436;29;20120;-84
2022/05/01 02:46:00;;;;;;;14.85;8.23;;;;;;;13.70;75.22;100494.91;4889071;29;20033;-82
2022/05/01 02:48:25;;;;;;;12.68;8.07;;;;;;;13.52;76.42;100494.44;4893005;29;20048;-83
2022/05/01 02:51:04;;;;;;;10.10;7.40;;;;;;;13.54;76.18;100496.91;4892864;29;20045;-83
2022/05/01 02:53:31;;;;;;;21.60;7.88;;;;;;;13.35;77.45;100492.94;4889260;29;20037;-83
2022/05/01 02:56:06;;;;;;;13.48;7.90;;;;;;;13.17;78.69;100489.75;4894110;29;20028;-83
2022/05/01 02:58:33;;;;;;;10.40;7.43;;;;;;;13.23;78.75;100491.69;4894474;29;20048;-81
2022/05/01 03:00:59;;;;;;;12.25;8.05;;;;;;;12.98;79.96;100492.88;4896833;29;20045;-84
2022/05/01 03:03:31;;;;;;;11.68;7.90;;;;;;;12.84;81.52;100497.97;4896785;29;20040;-86
2022/05/01 03:05:58;;;;;;;15.50;7.97;;;;;;;12.91;81.16;100493.59;4895108;29;20037;-88
2022/05/01 03:08:26;;;;;;;14.52;8.20;;;;;;;13.03;80.79;100490.50;4923979;23;20052;-85
2022/05/01 03:10:53;;;;;;;11.93;7.72;;;;;;;13.10;79.94;100489.66;4895561;29;20039;-85
2022/05/01 03:13:19;;;;;;;11.65;7.82;;;;;;;13.20;79.74;100492.06;4895455;29;20043;-81
2022/05/01 03:15:45;;;;;;;10.40;7.72;;;;;;;13.04;80.65;100493.00;4904694;29;20025;-81
2022/05/01 03:23:52;;;;;;;14.00;7.97;;;;;;;12.89;81.80;100494.81;4902213;29;21575;-85
2022/05/01 03:26:22;;;;;;;12.45;7.60;;;;;;;13.00;80.75;100486.38;4891147;29;20028;-87
2022/05/01 03:28:48;;;;;;;11.82;8.30;;;;;;;13.03;80.35;100490.50;4894597;29;20569;-87
2022/05/01 03:31:16;;;;;;;10.10;7.55;;;;;;;12.92;81.10;100494.44;4895226;29;20150;-83
2022/05/01 03:33:42;;;;;;;11.13;8.10;;;;;;;12.61;82.94;100490.97;4894100;29;20041;-87
2022/05/01 03:36:09;;;;;;;13.38;8.25;;;;;;;12.49;84.38;100492.41;4893260;29;20469;-85
2022/05/01 03:38:52;;;;;;;14.23;8.57;;;;;;;12.33;85.51;100482.66;4893520;29;20065;-86
2022/05/01 03:41:21;;;;;;;13.75;8.75;;;;;;;12.46;85.01;100488.28;4894877;29;20045;-88
2022/05/01 03:43:54;;;;;;;16.73;8.25;;;;;;;12.43;85.36;100488.59;4894290;29;20116;-84
2022/05/01 03:46:20;;;;;;;11.05;7.63;;;;;;;12.50;85.39;100483.41;4892494;29;20048;-85
2022/05/01 03:49:12;;;;;;;11.55;7.70;;;;;;;12.77;83.42;100491.72;4892629;29;20041;-86
2022/05/01 03:51:42;;;;;;;11.18;8.13;;;;;;;12.71;82.94;100497.75;4908982;29;20041;-85
2022/05/01 03:54:08;;;;;;;12.20;8.38;;;;;;;12.68;82.97;100497.25;4907351;29;20048;-85
2022/05/01 03:56:57;;;;;;;15.23;8.52;;;;;;;12.41;84.79;100501.25;4912396;29;20033;-81
2022/05/01 03:59:26;;;;;;;10.60;7.85;;;;;;;12.30;85.42;100501.63;4930213;23;20060;-81
2022/05/01 04:01:54;;;;;;;10.70;8.00;;;;;;;12.23;86.18;100508.66;4917450;29;20041;-81
2022/05/01 04:04:31;;;;;;;16.42;8.40;;;;;;;12.20;86.97;100508.97;4916504;29;20020;-81
2022/05/01 04:07:04;;;;;;;15.30;8.05;;;;;;;12.27;86.46;100512.59;4918693;29;20037;-81
2022/05/01 04:09:33;;;;;;;9.90;7.75;;;;;;;12.36;86.03;100504.41;4915909;29;20064;-84
2022/05/01 04:12:26;;;;;;;11.55;7.70;;;;;;;12.31;86.95;100516.56;4908687;29;20055;-82
2022/05/01 04:14:52;;;;;;;10.55;8.27;;;;;;;12.34;86.67;100506.41;4911079;29;20036;-87
2022/05/01 04:17:30;;;;;;;11.75;7.70;;;;;;;12.38;86.66;100507.72;4909186;29;20037;-84
2022/05/01 04:19:55;;;;;;;13.43;8.60;;;;;;;12.36;86.42;100504.41;4909889;29;20048;-82
2022/05/01 04:22:37;;;;;;;11.27;8.48;;;;;;;12.42;86.33;100513.53;4913716;23;20104;-83
2022/05/01 04:25:31;;;;;;;13.55;8.23;;;;;;;12.53;85.85;100518.44;4901173;23;20056;-83
2022/05/01 04:28:08;;;;;;;17.58;8.23;;;;;;;12.45;86.36;100510.53;4892557;29;20036;-87
2022/05/01 04:30:34;;;;;;;12.77;8.45;;;;;;;12.42;86.47;100516.19;4891540;29;20065;-84
2022/05/01 04:33:06;;;;;;;10.48;7.38;;;;;;;12.48;86.57;100517.31;4886890;29;20045;-84
2022/05/01 04:35:37;;;;;;;13.15;7.93;;;;;;;12.72;84.69;100515.34;4889938;29;20053;-81
2022/05/01 04:38:14;;;;;;;11.70;7.75;;;;;;;12.80;84.40;100523.25;4882725;29;20036;-85
2022/05/01 04:40:40;;;;;;;10.75;7.78;;;;;;;12.75;85.26;100525.63;4882788;29;20040;-80
2022/05/01 04:43:08;;;;;;;16.70;8.75;;;;;;;12.73;85.83;100521.47;4883626;29;20070;-82
2022/05/01 04:45:35;;;;;;;17.27;8.77;;;;;;;12.64;86.22;100526.03;4883659;29;20033;-82
2022/05/01 04:48:02;;;;;;;13.63;9.07;;;;;;;12.98;84.25;100535.47;4880979;29;20205;-79
2022/05/01 04:50:28;;;;;;;13.25;8.15;;;;;;;13.13;83.50;100528.38;4880614;29;20044;-80
2022/05/01 04:53:00;;;;;;;9.70;7.88;;;;;;;13.34;82.31;100528.53;4882243;29;20037;-85
2022/05/01 04:55:26;;;;;;;10.68;8.27;;;;;;;13.45;80.92;100531.63;4884296;29;20557;-85
2022/05/01 04:57:51;;;;;;;13.00;8.23;;;;;;;13.25;81.80;100532.28;4882550;29;20078;-83
2022/05/01 05:00:20;;;;;;;18.08;8.77;;;;;;;13.43;81.09;100540.78;4881883;29;20041;-86
2022/05/01 05:02:52;;;;;;;13.50;8.77;;;;;;;13.48;80.58;100538.41;4881809;29;20066;-81
2022/05/01 05:05:19;;;;;;;13.93;8.77;;;;;;;13.49;80.64;100540.03;4881421;29;20073;-87
2022/05/01 05:07:46;;;;;;;12.98;8.45;;;;;;;13.55;80.25;100538.50;4880361;29;20025;-82
2022/05/01 05:10:16;;;;;;;11.63;7.82;;;;;;;13.56;81.15;100540.97;4879574;29;20037;-84
2022/05/01 05:12:44;;;;;;;15.88;8.45;;;;;;;13.48;81.86;100541.06;4881234;29;20052;-80
2022/05/01 05:15:11;;;;;;;11.93;7.55;;;;;;;13.79;80.74;100539.09;4881902;29;20045;-80
2022/05/01 05:17:38;;;;;;;11.38;6.43;;;;;;;13.98;79.61;100546.56;4881618;29;20037;-85
2022/05/01 05:20:09;;;;;;;9.57;6.22;;;;;;;14.20;78.17;100546.63;4882021;29;20539;-85
2022/05/01 05:22:35;;;;;;;10.57;5.60;;;;;;;14.25;77.54;100553.06;4876004;29;20573;-83
2022/05/01 05:25:01;;;;;;;11.85;4.95;;;;;;;14.45;76.55;100554.16;4873334;29;20039;-81
2022/05/01 05:27:27;;;;;;;9.65;4.75;;;;;;;14.55;76.27;100545.88;4878688;29;20093;-83
2022/05/01 05:30:15;;;;;;;8.02;5.05;;;;;;;14.65;75.45;100553.59;4871604;29;20037;-80
2022/05/01 05:32:53;;;;;;;10.45;5.03;;;;;;;14.95;73.51;100553.31;4889558;29;20065;-82
2022/05/01 05:35:37;;;;;;;9.27;4.82;;;;;;;15.50;72.47;100554.47;4890630;29;20053;-82
2022/05/01 05:38:27;;;;;;;6.05;4.10;;;;;;;15.75;70.69;100558.38;4870893;29;20036;-86
2022/05/01 05:40:56;;;;;;;9.02;4.50;;;;;;;16.30;67.59;100557.50;4854471;29;20086;-82
2022/05/01 05:43:23;;;;;;;8.30;3.88;;;;;;;17.01;64.84;100555.28;4886285;29;20042;-79
2022/05/01 05:45:55;;;;;;;6.93;3.47;;;;;;;17.54;62.55;100562.34;4879776;29;20013;-84
2022/05/01 05:48:21;;;;;;;9.27;3.83;;;;;;;17.21;62.24;100563.34;4881178;29;20067;-85
2022/05/01 05:50:46;;;;;;;6.07;3.55;;;;;;;17.05;62.64;100562.72;4899197;23;20076;-85
2022/05/01 05:53:12;;;;;;;8.98;3.45;;;;;;;16.97;62.59;100559.38;4907261;29;20100;-83
2022/05/01 05:55:40;;;;;;;10.00;3.70;;;;;;;16.82;63.83;100570.28;4911904;29;20036;-82
2022/05/01 05:58:11;;;;;;;5.65;3.45;;;;;;;16.47;65.58;100569.47;4908376;29;20045;-82
2022/05/01 06:00:40;;;;;;;4.63;3.53;;;;;;;15.99;68.78;100570.47;4907033;29;20048;-86
2022/05/01 06:03:09;;;;;;;7.28;4.18;;;;;;;16.23;67.80;100561.16;4904398;29;20100;-84
2022/05/01 06:05:35;;;;;;;7.95;3.40;;;;;;;16.27;66.87;100565.09;4903923;29;20528;-81
2022/05/01 06:08:01;;;;;;;12.75;4.43;;;;;;;16.32;66.67;100566.13;4903815;29;20040;-85
2022/05/01 06:10:26;;;;;;;7.85;3.90;;;;;;;16.36;67.71;100572.75;4901606;29;20044;-84
2022/05/01 06:12:52;;;;;;;6.20;3.85;;;;;;;16.27;67.85;100573.09;4903130;29;20040;-81
2022/05/01 06:15:19;;;;;;;10.50;4.03;;;;;;;16.62;65.87;100577.41;4902106;29;20377;-84
2022/05/01 06:17:45;;;;;;;5.60;3.50;;;;;;;16.70;67.01;100581.78;4904226;29;20048;-80
2022/05/01 06:20:13;;;;;;;6.40;3.10;;;;;;;18.16;61.88;100576.34;4905282;29;20440;-83
2022/05/01 06:22:39;;;;;;;6.78;3.45;;;;;;;19.18;55.47;100582.53;4904181;29;20048;-83
2022/05/01 06:25:05;;;;;;;10.23;3.70;;;;;;;19.07;55.91;100578.66;4904404;29;20032;-85
2022/05/01 06:27:33;;;;;;;5.57;3.75;;;;;;;19.37;54.35;100586.13;4907255;29;20392;-88
2022/05/01 06:29:59;;;;;;;8.13;3.38;;;;;;;19.13;54.25;100578.84;4907800;29;20029;-81
2022/05/01 06:32:27;;;;;;;6.68;3.35;;;;;;;19.16;53.80;100589.16;4905588;29;20060;-84
2022/05/01 06:34:53;;;;;;;5.05;3.33;;;;;;;18.99;53.69;100600.41;4906370;29;20391;-80
2022/05/01 06:37:19;;;;;;;5.85;3.30;;;;;;;19.20;53.62;100593.88;4917969;29;20032;-83
2022/05/01 06:39:44;;;;;;;6.65;3.53;;;;;;;20.90;48.81;100599.53;4924928;29;20040;-84
2022/05/01 06:42:11;;;;;;;4.32;3.40;;;;;;;20.91;47.24;100605.75;4929662;29;20064;-84
2022/05/01 06:44:37;;;;;;;8.70;3.20;;;;;;;20.77;47.69;100606.94;4924367;29;20054;-85
2022/05/01 06:47:03;;;;;;;7.32;3.88;;;;;;;19.95;50.63;100613.63;4922315;29;20036;-86
2022/05/01 06:49:28;;;;;;;6.65;3.35;;;;;;;19.00;52.27;100602.06;4923401;29;20345;-84
2022/05/01 06:51:54;;;;;;;5.90;3.97;;;;;;;18.67;53.56;100612.13;4922057;29;20127;-85
2022/05/01 06:54:20;;;;;;;5.82;3.53;;;;;;;18.72;53.62;100604.28;4923666;29;20071;-85
2022/05/01 06:56:45;;;;;;;7.18;3.75;;;;;;;18.51;54.44;100608.06;4924495;29;20115;-86
2022/05/01 06:59:17;;;;;;;6.72;3.90;;;;;;;18.51;54.15;100602.69;4923437;29;20124;-84
2022/05/01 07:01:47;;;;;;;9.05;4.03;;;;;;;19.49;51.73;100603.22;4908893;29;20051;-84
2022/05/01 07:04:13;;;;;;;5.43;4.15;;;;;;;19.84;49.02;100608.94;4907975;29;20480;-83
2022/05/01 07:06:40;;;;;;;6.38;4.07;;;;;;;19.90;48.57;100608.88;4905645;29;20047;-85
2022/05/01 07:09:11;;;;;;;7.60;3.63;;;;;;;20.79;47.52;100616.44;4906772;29;20044;-87
2022/05/01 07:11:39;;;;;;;10.27;3.40;;;;;;;21.94;44.25;100612.50;4907713;29;20127;-84
2022/05/01 07:14:05;;;;;;;7.50;3.95;;;;;;;22.45;42.28;100619.03;4905788;29;20043;-85
2022/05/01 07:16:51;;;;;;;5.55;3.67;;;;;;;21.26;45.22;100611.28;4907947;29;20052;-85
2022/05/01 07:19:16;;;;;;;5.43;3.40;;;;;;;21.89;44.18;100609.69;4915648;29;20044;-86
2022/05/01 07:21:43;;;;;;;12.43;3.90;;;;;;;21.64;43.29;100609.06;4916523;29;20036;-84
2022/05/01 07:24:09;;;;;;;5.80;3.47;;;;;;;20.84;45.39;100607.69;4886313;29;20037;-84
2022/05/01 07:26:40;;;;;;;4.13;3.22;;;;;;;20.62;45.85;100615.41;4898824;29;20039;-83
2022/05/01 07:29:09;;;;;;;7.45;3.58;;;;;;;20.43;46.11;100611.06;4905609;29;20032;-83
2022/05/01 07:31:35;;;;;;;5.35;3.45;;;;;;;20.35;46.54;100604.09;4895230;29;20044;-83
2022/05/01 07:34:03;;;;;;;12.50;3.90;;;;;;;19.95;48.04;100600.16;4906992;29;20029;-85
2022/05/01 07:36:33;;;;;;;8.02;3.35;;;;;;;19.84;48.66;100599.03;4907364;29;20028;-87
2022/05/01 07:39:04;;;;;;;5.60;3.78;;;;;;;19.82;47.41;100594.91;4904369;29;20049;-85
2022/05/01 07:41:30;;;;;;;5.05;3.67;;;;;;;19.32;48.32;100597.50;4905074;29;20068;-85
2022/05/01 07:43:55;;;;;;;5.93;3.58;;;;;;;19.23;48.52;100595.31;4905005;29;20044;-84
2022/05/01 07:46:22;;;;;;;4.95;3.33;;;;;;;19.15;49.36;100601.78;4901619;29;20505;-81
2022/05/01 07:48:48;;;;;;;3.70;3.05;;;;;;;18.96;49.99;100600.84;4887675;29;20044;-83
2022/05/01 07:51:20;;;;;;;7.13;3.60;;;;;;;18.52;51.14;100603.53;4904270;29;20040;-82
2022/05/01 07:53:45;;;;;;;3.80;3.03;;;;;;;18.97;50.38;100598.97;4899263;29;20036;-81
2022/05/01 07:56:12;;;;;;;6.65;3.90;;;;;;;19.00;50.34;100607.44;4904116;29;20044;-82
2022/05/01 07:58:38;;;;;;;8.35;3.92;;;;;;;19.14;50.19;100607.34;4905718;29;20073;-83
2022/05/01 08:01:04;;;;;;;5.65;4.22;;;;;;;18.96;50.66;100616.94;4907829;29;20441;-81
2022/05/01 08:06:21;;;;;;;7.80;4.88;;;;;;;18.62;53.17;100611.13;4896107;29;20092;-79
2022/05/01 08:08:47;;;;;;;8.20;4.57;;;;;;;18.99;52.35;100616.50;4900736;29;20092;-79
2022/05/01 08:11:16;;;;;;;8.57;4.65;;;;;;;19.29;52.93;100632.09;4901703;29;20080;-81
2022/05/01 08:13:41;;;;;;;8.63;4.22;;;;;;;19.55;52.09;100621.19;4901155;29;20123;-82
2022/05/01 08:16:12;;;;;;;7.63;4.30;;;;;;;19.68;51.08;100621.09;4902451;29;20063;-81
2022/05/01 08:21:23;;;;;;;6.28;4.85;;;;;;;19.72;50.03;100622.28;4900926;29;20044;-83
2022/05/01 08:23:49;;;;;;;7.22;3.95;;;;;;;20.02;50.35;100622.44;4903108;29;20036;-83
2022/05/01 08:26:17;;;;;;;7.47;4.90;;;;;;;20.11;51.39;100624.63;4901100;29;20451;-82
2022/05/01 08:28:45;;;;;;;8.90;4.20;;;;;;;20.14;50.57;100620.69;4902156;29;20539;-81
2022/05/01 08:31:10;;;;;;;8.27;5.05;;;;;;;20.28;50.26;100637.56;4902609;29;20040;-84
2022/05/01 08:33:39;;;;;;;6.47;4.10;;;;;;;20.47;49.48;100626.56;4903106;29;20040;-82
2022/05/01 08:36:09;;;;;;;9.05;4.65;;;;;;;20.98;48.07;100628.84;4899186;29;20045;-83
2022/05/01 08:38:37;;;;;;;8.50;4.70;;;;;;;20.68;48.71;100632.56;4900359;29;20052;-83
2022/05/01 08:41:05;;;;;;;10.05;4.82;;;;;;;20.20;49.49;100629.72;4900340;29;20043;-84
2022/05/01 08:43:31;;;;;;;6.10;4.45;;;;;;;20.14;50.05;100631.44;4900681;29;20100;-83
2022/05/01 08:46:19;;;;;;;8.63;4.60;;;;;;;20.65;49.30;100633.81;4901627;29;20060;-81
2022/05/01 08:48:57;;;;;;;6.03;4.63;;;;;;;20.61;49.26;100635.31;4900448;29;20111;-80
2022/05/01 08:51:23;;;;;;;5.40;4.60;;;;;;;20.56;48.73;100637.84;4899068;29;20136;-79
2022/05/01 08:53:50;;;;;;;6.50;4.93;;;;;;;20.27;49.51;100646.66;4898252;29;20574;-80
2022/05/01 08:56:20;;;;;;;7.03;5.13;;;;;;;20.47;49.94;100644.59;4898715;29;20084;-80
2022/05/01 08:58:47;;;;;;;6.50;4.95;;;;;;;20.77;48.19;100633.88;4897218;29;20037;-82
2022/05/01 09:01:13;;;;;;;9.40;5.20;;;;;;;20.68;47.86;100638.78;4898884;29;20029;-80
2022/05/01 09:03:41;;;;;;;6.15;4.90;;;;;;;20.42;48.84;100630.97;4900213;29;20032;-84
2022/05/01 09:06:06;;;;;;;6.93;5.00;;;;;;;20.82;48.82;100651.00;4898480;29;20377;-80
2022/05/01 09:08:32;;;;;;;9.45;4.95;;;;;;;21.02;47.55;100637.28;4899118;29;20126;-81
2022/05/01 09:12:49;;;;;;;6.70;4.97;;;;;;;21.04;47.79;100633.34;4902741;29;20033;-85
2022/05/01 09:13:55;;;;;;;12.73;4.65;;;;;;;21.29;47.54;100632.38;4890044;29;20032;-88
2022/05/01 09:16:20;;;;;;;7.47;4.17;;;;;;;21.55;46.91;100637.38;4902136;29;20040;-86
2022/05/01 09:18:47;;;;;;;8.88;4.85;;;;;;;21.16;47.29;100632.56;4902402;29;20039;-87
2022/05/01 09:21:14;;;;;;;7.03;4.80;;;;;;;21.12;48.21;100630.34;4903819;29;20045;-82
2022/05/01 09:23:45;;;;;;;11.27;5.25;;;;;;;21.14;48.02;100622.03;4901174;29;20044;-86
2022/05/01 09:26:18;;;;;;;9.00;5.27;;;;;;;21.51;46.93;100614.66;4901670;29;20519;-82
2022/05/01 09:28:51;;;;;;;8.70;5.22;;;;;;;21.29;46.90;100619.75;4903523;29;20056;-83
2022/05/01 09:31:41;;;;;;;8.02;4.90;;;;;;;21.17;46.70;100616.19;4921090;29;20508;-83
2022/05/01 09:34:29;;;;;;;8.68;5.45;;;;;;;20.52;47.90;100615.09;4895288;29;20045;-81
2022/05/01 09:36:59;;;;;;;8.45;5.28;;;;;;;20.54;47.43;100616.56;4906410;29;20059;-83
2022/05/01 09:39:28;;;;;;;6.95;4.85;;;;;;;20.45;47.91;100617.06;4913148;29;20096;-85
2022/05/01 09:42:14;;;;;;;7.75;4.63;;;;;;;20.56;47.27;100616.31;4901370;29;20052;-84
2022/05/01 09:44:40;;;;;;;7.00;4.22;;;;;;;21.14;45.38;100612.06;4902862;29;20044;-85
2022/05/01 09:47:07;;;;;;;8.07;3.92;;;;;;;21.93;42.85;100599.25;4903742;29;20033;-87
2022/05/01 09:49:47;;;;;;;9.40;4.38;;;;;;;22.17;41.91;100608.16;4906267;29;20049;-85
2022/05/01 09:52:13;;;;;;;7.25;5.47;;;;;;;21.98;42.27;100602.06;4907175;29;20040;-83
2022/05/01 09:55:01;;;;;;;7.05;3.58;;;;;;;22.19;40.53;100603.34;4907152;29;20028;-81
2022/05/01 09:57:28;;;;;;;5.28;3.78;;;;;;;21.99;39.46;100604.53;4908442;29;20115;-79
2022/05/01 09:59:53;;;;;;;5.68;3.53;;;;;;;21.73;40.24;100599.56;4906042;29;20193;-80
2022/05/01 10:02:28;;;;;;;3.97;2.67;;;;;;;21.77;41.57;100597.22;4904743;29;20111;-79
2022/05/01 10:04:56;;;;;;;8.32;3.55;;;;;;;22.03;40.47;100588.69;4905364;29;20059;-83
2022/05/01 10:07:25;;;;;;;4.88;3.38;;;;;;;22.15;40.46;100601.13;4900289;29;20051;-84
2022/05/01 10:09:52;;;;;;;4.63;3.42;;;;;;;21.91;39.91;100596.78;4901766;29;20040;-79
2022/05/01 10:12:21;;;;;;;6.30;3.20;;;;;;;22.17;39.55;100597.38;4900055;29;20096;-84
2022/05/01 10:14:48;;;;;;;7.18;3.42;;;;;;;22.36;39.43;100593.47;4894624;29;20029;-83
2022/05/01 10:17:14;;;;;;;4.43;3.47;;;;;;;21.95;40.39;100587.16;4899126;29;20032;-80
2022/05/01 10:19:43;;;;;;;5.03;2.80;;;;;;;21.87;40.42;100584.78;4898527;29;20056;-81
2022/05/01 10:22:12;;;;;;;5.88;3.55;;;;;;;21.87;40.75;100582.09;4904187;29;20045;-85
2022/05/01 10:24:38;;;;;;;7.50;3.58;;;;;;;21.76;41.32;100572.09;4903286;29;20493;-83
2022/05/01 10:27:42;;;;;;;7.22;3.88;;;;;;;21.39;41.33;100576.88;4901687;29;20105;-81
2022/05/01 10:33:07;;;;;;;6.45;3.58;;;;;;;21.79;41.81;100574.34;4903765;29;20468;-83
2022/05/01 10:35:51;;;;;;;5.18;3.60;;;;;;;21.73;40.03;100561.78;4903599;29;20043;-90
2022/05/01 10:38:55;;;;;;;6.43;3.45;;;;;;;21.21;41.38;100568.88;4893675;29;20033;-81
2022/05/01 10:41:21;;;;;;;3.80;2.90;;;;;;;21.20;41.16;100561.00;4887389;29;20036;-81
2022/05/01 10:43:58;;;;;;;3.92;2.95;;;;;;;21.36;40.60;100563.03;4904623;29;20036;-82
2022/05/01 10:46:33;;;;;;;7.82;3.60;;;;;;;21.36;41.52;100555.75;4901591;29;20052;-87
2022/05/01 10:49:34;;;;;;;8.23;3.83;;;;;;;21.88;40.79;100547.81;4902364;29;20444;-83
2022/05/01 10:52:23;;;;;;;4.53;3.65;;;;;;;22.30;40.08;100546.66;4896484;29;20144;-86
2022/05/01 10:55:01;;;;;;;7.82;3.13;;;;;;;22.60;39.22;100551.84;4892881;29;20130;-84
2022/05/01 10:57:27;;;;;;;7.07;3.60;;;;;;;22.78;37.97;100542.75;4900873;29;20073;-82
2022/05/01 11:00:12;;;;;;;5.70;3.40;;;;;;;23.02;37.89;100550.53;4905259;29;20036;-83
2022/05/01 11:02:42;;;;;;;5.65;3.60;;;;;;;23.17;37.94;100537.25;4908515;29;20208;-83
2022/05/01 11:05:11;;;;;;;12.82;4.22;;;;;;;23.58;37.07;100532.56;4913245;29;20051;-86
2022/05/01 11:07:39;;;;;;;5.72;3.75;;;;;;;23.11;37.10;100530.13;4901036;29;20039;-84
2022/05/01 11:10:11;;;;;;;3.45;3.10;;;;;;;23.07;37.63;100531.66;4902059;29;20041;-84
2022/05/01 11:12:37;;;;;;;5.77;4.10;;;;;;;23.22;36.90;100519.50;4902668;29;20473;-85
2022/05/01 11:15:08;;;;;;;7.10;3.83;;;;;;;23.13;37.14;100514.47;4903937;29;20404;-83
2022/05/01 11:17:36;;;;;;;6.10;3.35;;;;;;;23.47;36.92;100517.22;4903507;29;20039;-87
2022/05/01 11:20:24;;;;;;;5.40;3.38;;;;;;;23.73;36.75;100513.81;4902328;29;20096;-85
2022/05/01 11:22:54;;;;;;;4.70;3.30;;;;;;;24.42;35.63;100516.97;4914479;29;20033;-79
2022/05/01 11:25:31;;;;;;;5.72;3.15;;;;;;;24.39;34.36;100504.75;4905151;29;20036;-81
2022/05/01 11:27:57;;;;;;;3.97;2.90;;;;;;;24.35;34.20;100513.63;4903599;29;20048;-80
2022/05/01 11:30:29;;;;;;;7.43;2.80;;;;;;;24.73;33.95;100508.09;4913468;29;20040;-86
2022/05/01 11:33:14;;;;;;;7.82;3.05;;;;;;;24.21;34.04;100498.81;4907349;29;20041;-80
2022/05/01 11:35:57;;;;;;;5.10;3.30;;;;;;;24.39;33.46;100501.22;4899096;29;20068;-83
2022/05/01 11:38:51;;;;;;;25.67;17.38;;;;;;;23.63;34.69;100487.44;4901987;29;20029;-87
2022/05/01 11:41:40;;;;;;;6.93;3.63;;;;;;;22.91;36.92;100483.81;4902186;29;20060;-86
2022/05/01 11:44:23;;;;;;;5.68;3.67;;;;;;;22.04;37.85;100472.38;4898038;29;20061;-81
2022/05/01 11:46:49;;;;;;;8.68;4.40;;;;;;;22.07;38.31;100471.09;4902916;29;20033;-88
2022/05/01 11:49:15;;;;;;;5.85;3.88;;;;;;;22.18;38.20;100481.03;4902377;29;20473;-82
2022/05/01 11:51:41;;;;;;;7.47;4.82;;;;;;;21.94;36.07;100461.38;4895198;29;20072;-80
2022/05/01 11:54:09;;;;;;;5.82;4.18;;;;;;;21.86;36.69;100467.09;4900183;29;20052;-87
2022/05/01 12:04:49;;;;;;;7.03;4.43;;;;;;;21.52;37.17;100457.16;4894170;29;20502;-83
2022/05/01 12:07:17;;;;;;;5.68;3.83;;;;;;;21.49;36.54;100441.44;4897548;29;20108;-82
2022/05/01 12:09:46;;;;;;;7.68;4.75;;;;;;;21.29;37.35;100447.19;4911192;29;20033;-81
2022/05/01 12:12:20;;;;;;;5.63;3.90;;;;;;;21.22;35.48;100445.66;4896245;29;20040;-82